Cordova, SC (29039)

7:29 PM EST on February 05, 2016 (GMT -0500)
Orangeburg Municipal | | Change Station
CLOSE
Current Station
Airport
Location: Orangeburg,
Elevation: 197 ft
Nearby Weather Stations
Active Advisory: Flood Warning

Elev 197 ft 33.46 °N, 80.86 °W | Updated 36 minutes ago

Clear
Clear
42 °F
Feels Like 42 °F
N
0
Wind Variable Wind from North

Today
High -- | Low -- °F
--% Chance of Precip.
Yesterday
High -- | Low -- °F
Precip. -- in
Pressure 30.37 in
Visibility 10.0 miles
Clouds Clear
Dew Point 26 °F
Humidity 53%
Rainfall 0.00 in
Snow Depth Not available.
7:17 AM 5:58 PM
Waning Crescent, 8% visible
METAR KOGB 052353Z AUTO 00000KT 10SM CLR 06/M03 A3037 RMK AO2 SLP283 T00561033 10117 20056 53015
Pressure 30.37 in
Visibility 10.0 miles
Clouds Clear
Dew Point 26 °F
Humidity 53%
Rainfall 0.00 in
Snow Depth Not available.
7:17 AM 5:58 PM
Waning Crescent, 8% visible
METAR KOGB 052353Z AUTO 00000KT 10SM CLR 06/M03 A3037 RMK AO2 SLP283 T00561033 10117 20056 53015

10-Day Weather Forecast

Almanac

Astronomy

Feb. 05, 2016 Rise Set
Actual Time
Civil Twilight
Nautical Twilight
Astronomical Twilight
Moon
Length of Visible Light
Length of Day
Tomorrow will be .
, % of the Moon is Illuminated

Today's Extremes

State Highs State Lows

Community

WunderPhotos

Upload Photos

1,890,897 photos uploaded!

WunderBlog® & News

Nearby

Air Quality

  Air Quality AQ Index Pollutant
Not available.

Snow Depth

Station Depth Elevation

Earthquake Activity

City Distance Mag. Time & Date
Minimum magnitude displayed is 2.5.

Coastal Water Temperatures

Place Temperature

Stations

Nearby Weather Stations

Station Location Temp. Windchill Dew Point Humidity Wind Precip. Elev Updated Type
                   

Watches & Warnings

Flood Warning
Issued: 2:00 PM EST Feb. 5, 2016 – National Weather Service

The Flood Warning continues for
the North Fork edisto river at Orangeburg.
* Until Monday evening... or until the warning is cancelled.
* At 1 PM Friday the stage was 8.1 feet.
* Flood stage is 8.0 feet.
* Minor flooding is occurring and minor flooding is forecast.
* Forecast... the river will reach 8.2 feet by after midnight tomorrow

and fall below flood stage Sunday evening.
* At 8.0 feet... some minor flooding occurs along the boardwalk at
edisto gardens. Downstream from the Highway 301 bridge, some roads
off Chiquita street near the river begin to flood.


Lat... Lon 3355 8092 3342 8082 3336 8091 3354 8100